sensor_id;sensor_type;location;lat;lon;timestamp;pressure;altitude;pressure_sealevel;temperature
41593;BMP180;28026;48.562;14.440;2023-07-31T00:01:18;93830.00;;;24.40
41593;BMP180;28026;48.562;14.440;2023-07-31T00:03:49;93828.00;;;24.40
41593;BMP180;28026;48.562;14.440;2023-07-31T00:06:20;93833.00;;;24.40
41593;BMP180;28026;48.562;14.440;2023-07-31T00:08:51;93829.00;;;24.30
41593;BMP180;28026;48.562;14.440;2023-07-31T00:11:22;93836.00;;;24.30
41593;BMP180;28026;48.562;14.440;2023-07-31T00:13:53;93833.00;;;24.30
41593;BMP180;28026;48.562;14.440;2023-07-31T00:16:24;93833.00;;;24.20
41593;BMP180;28026;48.562;14.440;2023-07-31T00:18:55;93837.00;;;24.20
41593;BMP180;28026;48.562;14.440;2023-07-31T00:21:26;93840.00;;;24.10
41593;BMP180;28026;48.562;14.440;2023-07-31T00:23:57;93837.00;;;24.10
41593;BMP180;28026;48.562;14.440;2023-07-31T00:26:28;93845.00;;;24.10
41593;BMP180;28026;48.562;14.440;2023-07-31T00:28:59;93839.00;;;24.10
41593;BMP180;28026;48.562;14.440;2023-07-31T00:31:29;93845.00;;;24.10
41593;BMP180;28026;48.562;14.440;2023-07-31T00:34:00;93836.00;;;24.00
41593;BMP180;28026;48.562;14.440;2023-07-31T00:36:31;93839.00;;;24.00
41593;BMP180;28026;48.562;14.440;2023-07-31T00:39:02;93849.00;;;24.00
41593;BMP180;28026;48.562;14.440;2023-07-31T00:41:34;93851.00;;;23.90
41593;BMP180;28026;48.562;14.440;2023-07-31T00:44:04;93846.00;;;23.90
41593;BMP180;28026;48.562;14.440;2023-07-31T00:46:36;93846.00;;;23.90
41593;BMP180;28026;48.562;14.440;2023-07-31T00:49:07;93852.00;;;23.90
41593;BMP180;28026;48.562;14.440;2023-07-31T00:51:39;93843.00;;;23.80
41593;BMP180;28026;48.562;14.440;2023-07-31T00:54:11;93851.00;;;23.80
41593;BMP180;28026;48.562;14.440;2023-07-31T00:56:45;93854.00;;;23.70
41593;BMP180;28026;48.562;14.440;2023-07-31T00:59:16;93844.00;;;23.60
41593;BMP180;28026;48.562;14.440;2023-07-31T01:01:49;93849.00;;;23.60
41593;BMP180;28026;48.562;14.440;2023-07-31T01:04:21;93846.00;;;23.50
41593;BMP180;28026;48.562;14.440;2023-07-31T01:07:01;93848.00;;;23.40
41593;BMP180;28026;48.562;14.440;2023-07-31T01:09:54;93854.00;;;23.30
41593;BMP180;28026;48.562;14.440;2023-07-31T01:12:28;93851.00;;;23.20
41593;BMP180;28026;48.562;14.440;2023-07-31T01:15:04;93848.00;;;23.10
41593;BMP180;28026;48.562;14.440;2023-07-31T01:17:38;93845.00;;;23.00
41593;BMP180;28026;48.562;14.440;2023-07-31T01:20:18;93853.00;;;22.90
41593;BMP180;28026;48.562;14.440;2023-07-31T01:26:03;93854.00;;;22.80
41593;BMP180;28026;48.562;14.440;2023-07-31T01:32:02;93835.00;;;22.70
41593;BMP180;28026;48.562;14.440;2023-07-31T01:34:36;93833.00;;;22.70
41593;BMP180;28026;48.562;14.440;2023-07-31T01:37:07;93835.00;;;22.60
41593;BMP180;28026;48.562;14.440;2023-07-31T01:39:38;93832.00;;;22.50
41593;BMP180;28026;48.562;14.440;2023-07-31T01:42:09;93825.00;;;22.50
41593;BMP180;28026;48.562;14.440;2023-07-31T01:44:40;93824.00;;;22.50
41593;BMP180;28026;48.562;14.440;2023-07-31T01:47:11;93813.00;;;22.50
41593;BMP180;28026;48.562;14.440;2023-07-31T01:49:42;93820.00;;;22.60
41593;BMP180;28026;48.562;14.440;2023-07-31T01:52:13;93815.00;;;22.60
41593;BMP180;28026;48.562;14.440;2023-07-31T01:54:43;93803.00;;;22.50
41593;BMP180;28026;48.562;14.440;2023-07-31T01:57:14;93805.00;;;22.50
41593;BMP180;28026;48.562;14.440;2023-07-31T01:59:45;93804.00;;;22.40
41593;BMP180;28026;48.562;14.440;2023-07-31T02:02:16;93803.00;;;22.40
41593;BMP180;28026;48.562;14.440;2023-07-31T02:04:47;93814.00;;;22.30
41593;BMP180;28026;48.562;14.440;2023-07-31T02:07:18;93809.00;;;22.20
41593;BMP180;28026;48.562;14.440;2023-07-31T02:09:48;93802.00;;;22.10
41593;BMP180;28026;48.562;14.440;2023-07-31T02:12:20;93810.00;;;22.10
41593;BMP180;28026;48.562;14.440;2023-07-31T02:14:51;93811.00;;;22.10
41593;BMP180;28026;48.562;14.440;2023-07-31T02:17:21;93806.00;;;22.10
41593;BMP180;28026;48.562;14.440;2023-07-31T02:19:52;93810.00;;;22.10
41593;BMP180;28026;48.562;14.440;2023-07-31T02:22:23;93807.00;;;22.00
41593;BMP180;28026;48.562;14.440;2023-07-31T02:24:54;93797.00;;;22.00
41593;BMP180;28026;48.562;14.440;2023-07-31T02:27:25;93801.00;;;21.90
41593;BMP180;28026;48.562;14.440;2023-07-31T02:29:58;93805.00;;;21.90
41593;BMP180;28026;48.562;14.440;2023-07-31T02:32:29;93812.00;;;21.90
41593;BMP180;28026;48.562;14.440;2023-07-31T02:35:00;93804.00;;;21.80
41593;BMP180;28026;48.562;14.440;2023-07-31T02:37:31;93801.00;;;21.80
41593;BMP180;28026;48.562;14.440;2023-07-31T02:40:02;93798.00;;;21.70
41593;BMP180;28026;48.562;14.440;2023-07-31T02:42:33;93798.00;;;21.70
41593;BMP180;28026;48.562;14.440;2023-07-31T02:45:05;93799.00;;;21.70
41593;BMP180;28026;48.562;14.440;2023-07-31T02:47:36;93798.00;;;21.60
41593;BMP180;28026;48.562;14.440;2023-07-31T02:50:08;93798.00;;;21.60
41593;BMP180;28026;48.562;14.440;2023-07-31T02:52:39;93790.00;;;21.60
41593;BMP180;28026;48.562;14.440;2023-07-31T02:55:10;93797.00;;;21.70
41593;BMP180;28026;48.562;14.440;2023-07-31T02:57:41;93800.00;;;21.70
41593;BMP180;28026;48.562;14.440;2023-07-31T03:00:12;93796.00;;;21.60
41593;BMP180;28026;48.562;14.440;2023-07-31T03:02:43;93796.00;;;21.60
41593;BMP180;28026;48.562;14.440;2023-07-31T03:05:14;93802.00;;;21.50
41593;BMP180;28026;48.562;14.440;2023-07-31T03:07:45;93793.00;;;21.50
41593;BMP180;28026;48.562;14.440;2023-07-31T03:10:16;93801.00;;;21.50
41593;BMP180;28026;48.562;14.440;2023-07-31T03:12:47;93805.00;;;21.40
41593;BMP180;28026;48.562;14.440;2023-07-31T03:15:18;93806.00;;;21.40
41593;BMP180;28026;48.562;14.440;2023-07-31T03:17:49;93802.00;;;21.40
41593;BMP180;28026;48.562;14.440;2023-07-31T03:20:20;93804.00;;;21.40
41593;BMP180;28026;48.562;14.440;2023-07-31T03:22:51;93803.00;;;21.40
41593;BMP180;28026;48.562;14.440;2023-07-31T03:25:21;93806.00;;;21.40
41593;BMP180;28026;48.562;14.440;2023-07-31T03:27:52;93810.00;;;21.40
41593;BMP180;28026;48.562;14.440;2023-07-31T03:30:23;93806.00;;;21.40
41593;BMP180;28026;48.562;14.440;2023-07-31T03:32:54;93800.00;;;21.40
41593;BMP180;28026;48.562;14.440;2023-07-31T03:35:25;93804.00;;;21.40
41593;BMP180;28026;48.562;14.440;2023-07-31T03:37:56;93807.00;;;21.40
41593;BMP180;28026;48.562;14.440;2023-07-31T03:40:27;93803.00;;;21.40
41593;BMP180;28026;48.562;14.440;2023-07-31T03:42:58;93810.00;;;21.50
41593;BMP180;28026;48.562;14.440;2023-07-31T03:45:28;93806.00;;;21.50
41593;BMP180;28026;48.562;14.440;2023-07-31T03:47:59;93796.00;;;21.50
41593;BMP180;28026;48.562;14.440;2023-07-31T03:50:30;93804.00;;;21.50
41593;BMP180;28026;48.562;14.440;2023-07-31T03:53:01;93810.00;;;21.60
41593;BMP180;28026;48.562;14.440;2023-07-31T03:55:32;93807.00;;;21.60
41593;BMP180;28026;48.562;14.440;2023-07-31T03:58:03;93807.00;;;21.60
41593;BMP180;28026;48.562;14.440;2023-07-31T04:00:34;93810.00;;;21.60
41593;BMP180;28026;48.562;14.440;2023-07-31T04:03:05;93805.00;;;21.60
41593;BMP180;28026;48.562;14.440;2023-07-31T04:05:38;93812.00;;;21.60
41593;BMP180;28026;48.562;14.440;2023-07-31T04:08:10;93810.00;;;21.60
41593;BMP180;28026;48.562;14.440;2023-07-31T04:10:41;93806.00;;;21.50
41593;BMP180;28026;48.562;14.440;2023-07-31T04:13:12;93809.00;;;21.50
41593;BMP180;28026;48.562;14.440;2023-07-31T04:15:42;93800.00;;;21.60
41593;BMP180;28026;48.562;14.440;2023-07-31T04:18:19;93800.00;;;21.60
41593;BMP180;28026;48.562;14.440;2023-07-31T04:20:50;93807.00;;;21.70
41593;BMP180;28026;48.562;14.440;2023-07-31T04:23:21;93786.00;;;21.70
41593;BMP180;28026;48.562;14.440;2023-07-31T04:25:52;93799.00;;;21.70
41593;BMP180;28026;48.562;14.440;2023-07-31T04:28:23;93802.00;;;21.70
41593;BMP180;28026;48.562;14.440;2023-07-31T04:30:53;93800.00;;;21.80
41593;BMP180;28026;48.562;14.440;2023-07-31T04:33:24;93796.00;;;21.80
41593;BMP180;28026;48.562;14.440;2023-07-31T04:35:55;93798.00;;;21.80
41593;BMP180;28026;48.562;14.440;2023-07-31T04:38:26;93799.00;;;21.90
41593;BMP180;28026;48.562;14.440;2023-07-31T04:40:57;93804.00;;;21.80
41593;BMP180;28026;48.562;14.440;2023-07-31T04:43:28;93805.00;;;21.90
41593;BMP180;28026;48.562;14.440;2023-07-31T04:45:59;93804.00;;;21.80
41593;BMP180;28026;48.562;14.440;2023-07-31T04:48:29;93804.00;;;21.90
41593;BMP180;28026;48.562;14.440;2023-07-31T04:51:00;93812.00;;;21.90
41593;BMP180;28026;48.562;14.440;2023-07-31T04:53:31;93812.00;;;21.90
41593;BMP180;28026;48.562;14.440;2023-07-31T04:56:03;93815.00;;;21.90
41593;BMP180;28026;48.562;14.440;2023-07-31T04:58:34;93808.00;;;21.90
41593;BMP180;28026;48.562;14.440;2023-07-31T05:01:04;93812.00;;;21.80
41593;BMP180;28026;48.562;14.440;2023-07-31T05:03:35;93809.00;;;21.80
41593;BMP180;28026;48.562;14.440;2023-07-31T05:06:06;93807.00;;;21.80
41593;BMP180;28026;48.562;14.440;2023-07-31T05:08:37;93814.00;;;21.90
41593;BMP180;28026;48.562;14.440;2023-07-31T05:11:08;93813.00;;;21.90
41593;BMP180;28026;48.562;14.440;2023-07-31T05:13:39;93817.00;;;21.90
41593;BMP180;28026;48.562;14.440;2023-07-31T05:16:10;93815.00;;;22.00
41593;BMP180;28026;48.562;14.440;2023-07-31T05:18:41;93807.00;;;22.10
41593;BMP180;28026;48.562;14.440;2023-07-31T05:21:11;93814.00;;;22.10
41593;BMP180;28026;48.562;14.440;2023-07-31T05:23:42;93817.00;;;22.10
41593;BMP180;28026;48.562;14.440;2023-07-31T05:26:13;93816.00;;;22.20
41593;BMP180;28026;48.562;14.440;2023-07-31T05:28:44;93817.00;;;22.20
41593;BMP180;28026;48.562;14.440;2023-07-31T05:31:15;93819.00;;;22.30
41593;BMP180;28026;48.562;14.440;2023-07-31T05:33:46;93822.00;;;22.30
41593;BMP180;28026;48.562;14.440;2023-07-31T05:36:17;93821.00;;;22.40
41593;BMP180;28026;48.562;14.440;2023-07-31T05:38:48;93817.00;;;22.40
41593;BMP180;28026;48.562;14.440;2023-07-31T05:41:19;93820.00;;;22.30
41593;BMP180;28026;48.562;14.440;2023-07-31T05:43:50;93816.00;;;22.30
41593;BMP180;28026;48.562;14.440;2023-07-31T05:46:22;93815.00;;;22.30
41593;BMP180;28026;48.562;14.440;2023-07-31T05:48:52;93818.00;;;22.30
41593;BMP180;28026;48.562;14.440;2023-07-31T05:51:23;93821.00;;;22.40
41593;BMP180;28026;48.562;14.440;2023-07-31T05:53:54;93821.00;;;22.40
41593;BMP180;28026;48.562;14.440;2023-07-31T05:56:25;93823.00;;;22.50
41593;BMP180;28026;48.562;14.440;2023-07-31T05:58:57;93820.00;;;22.50
41593;BMP180;28026;48.562;14.440;2023-07-31T06:01:28;93825.00;;;22.40
41593;BMP180;28026;48.562;14.440;2023-07-31T06:03:59;93814.00;;;22.40
41593;BMP180;28026;48.562;14.440;2023-07-31T06:06:30;93817.00;;;22.40
41593;BMP180;28026;48.562;14.440;2023-07-31T06:09:01;93824.00;;;22.30
41593;BMP180;28026;48.562;14.440;2023-07-31T06:11:34;93819.00;;;22.20
41593;BMP180;28026;48.562;14.440;2023-07-31T06:14:04;93823.00;;;22.30
41593;BMP180;28026;48.562;14.440;2023-07-31T06:16:35;93819.00;;;22.50
41593;BMP180;28026;48.562;14.440;2023-07-31T06:19:06;93814.00;;;22.70
41593;BMP180;28026;48.562;14.440;2023-07-31T06:21:37;93816.00;;;22.80
41593;BMP180;28026;48.562;14.440;2023-07-31T06:24:09;93809.00;;;23.00
41593;BMP180;28026;48.562;14.440;2023-07-31T06:26:40;93805.00;;;23.10
41593;BMP180;28026;48.562;14.440;2023-07-31T06:29:10;93809.00;;;23.10
41593;BMP180;28026;48.562;14.440;2023-07-31T06:31:41;93809.00;;;23.20
41593;BMP180;28026;48.562;14.440;2023-07-31T06:34:12;93814.00;;;23.30
41593;BMP180;28026;48.562;14.440;2023-07-31T06:36:43;93804.00;;;23.50
41593;BMP180;28026;48.562;14.440;2023-07-31T06:39:14;93804.00;;;23.70
41593;BMP180;28026;48.562;14.440;2023-07-31T06:41:45;93810.00;;;23.70
41593;BMP180;28026;48.562;14.440;2023-07-31T06:44:16;93812.00;;;23.80
41593;BMP180;28026;48.562;14.440;2023-07-31T06:46:47;93801.00;;;23.80
41593;BMP180;28026;48.562;14.440;2023-07-31T06:49:17;93806.00;;;23.90
41593;BMP180;28026;48.562;14.440;2023-07-31T06:51:48;93817.00;;;24.00
41593;BMP180;28026;48.562;14.440;2023-07-31T06:54:19;93805.00;;;24.10
41593;BMP180;28026;48.562;14.440;2023-07-31T06:56:50;93806.00;;;24.20
41593;BMP180;28026;48.562;14.440;2023-07-31T06:59:21;93799.00;;;24.30
41593;BMP180;28026;48.562;14.440;2023-07-31T07:01:52;93795.00;;;24.30
41593;BMP180;28026;48.562;14.440;2023-07-31T07:04:22;93811.00;;;24.40
41593;BMP180;28026;48.562;14.440;2023-07-31T07:06:53;93802.00;;;24.60
41593;BMP180;28026;48.562;14.440;2023-07-31T07:09:24;93803.00;;;24.80
41593;BMP180;28026;48.562;14.440;2023-07-31T07:11:55;93792.00;;;24.90
41593;BMP180;28026;48.562;14.440;2023-07-31T07:14:26;93799.00;;;25.00
41593;BMP180;28026;48.562;14.440;2023-07-31T07:16:57;93799.00;;;25.10
41593;BMP180;28026;48.562;14.440;2023-07-31T07:19:28;93791.00;;;25.20
41593;BMP180;28026;48.562;14.440;2023-07-31T07:21:58;93789.00;;;25.30
41593;BMP180;28026;48.562;14.440;2023-07-31T07:24:32;93792.00;;;25.30
41593;BMP180;28026;48.562;14.440;2023-07-31T07:27:03;93789.00;;;25.50
41593;BMP180;28026;48.562;14.440;2023-07-31T07:29:35;93793.00;;;25.60
41593;BMP180;28026;48.562;14.440;2023-07-31T07:32:06;93789.00;;;25.70
41593;BMP180;28026;48.562;14.440;2023-07-31T07:34:38;93789.00;;;25.80
41593;BMP180;28026;48.562;14.440;2023-07-31T07:37:09;93792.00;;;25.80
41593;BMP180;28026;48.562;14.440;2023-07-31T07:39:40;93796.00;;;25.90
41593;BMP180;28026;48.562;14.440;2023-07-31T07:42:11;93794.00;;;26.00
41593;BMP180;28026;48.562;14.440;2023-07-31T07:44:42;93789.00;;;26.20
41593;BMP180;28026;48.562;14.440;2023-07-31T07:47:13;93796.00;;;26.30
41593;BMP180;28026;48.562;14.440;2023-07-31T07:49:44;93787.00;;;26.40
41593;BMP180;28026;48.562;14.440;2023-07-31T07:52:15;93789.00;;;26.50
41593;BMP180;28026;48.562;14.440;2023-07-31T07:54:46;93783.00;;;26.60
41593;BMP180;28026;48.562;14.440;2023-07-31T07:57:17;93798.00;;;26.80
41593;BMP180;28026;48.562;14.440;2023-07-31T07:59:47;93792.00;;;26.80
41593;BMP180;28026;48.562;14.440;2023-07-31T08:02:18;93801.00;;;26.70
41593;BMP180;28026;48.562;14.440;2023-07-31T08:04:49;93799.00;;;26.70
41593;BMP180;28026;48.562;14.440;2023-07-31T08:07:20;93786.00;;;26.80
41593;BMP180;28026;48.562;14.440;2023-07-31T08:09:51;93789.00;;;26.90
41593;BMP180;28026;48.562;14.440;2023-07-31T08:12:22;93787.00;;;27.10
41593;BMP180;28026;48.562;14.440;2023-07-31T08:14:53;93795.00;;;27.30
41593;BMP180;28026;48.562;14.440;2023-07-31T08:17:24;93784.00;;;27.30
41593;BMP180;28026;48.562;14.440;2023-07-31T08:19:55;93792.00;;;27.30
41593;BMP180;28026;48.562;14.440;2023-07-31T08:22:28;93786.00;;;27.40
41593;BMP180;28026;48.562;14.440;2023-07-31T08:24:59;93793.00;;;27.40
41593;BMP180;28026;48.562;14.440;2023-07-31T08:27:30;93796.00;;;27.40
41593;BMP180;28026;48.562;14.440;2023-07-31T08:30:01;93791.00;;;27.50
41593;BMP180;28026;48.562;14.440;2023-07-31T08:32:32;93792.00;;;27.60
41593;BMP180;28026;48.562;14.440;2023-07-31T08:35:03;93793.00;;;27.60
41593;BMP180;28026;48.562;14.440;2023-07-31T08:37:34;93802.00;;;27.60
41593;BMP180;28026;48.562;14.440;2023-07-31T08:40:06;93793.00;;;27.80
41593;BMP180;28026;48.562;14.440;2023-07-31T08:42:49;93785.00;;;28.00
41593;BMP180;28026;48.562;14.440;2023-07-31T08:45:27;93777.00;;;28.10
41593;BMP180;28026;48.562;14.440;2023-07-31T08:47:59;93774.00;;;28.40
41593;BMP180;28026;48.562;14.440;2023-07-31T08:50:31;93789.00;;;28.50
41593;BMP180;28026;48.562;14.440;2023-07-31T08:53:02;93778.00;;;28.40
41593;BMP180;28026;48.562;14.440;2023-07-31T08:55:33;93778.00;;;28.30
41593;BMP180;28026;48.562;14.440;2023-07-31T08:58:05;93774.00;;;28.20
41593;BMP180;28026;48.562;14.440;2023-07-31T09:00:36;93775.00;;;28.10
41593;BMP180;28026;48.562;14.440;2023-07-31T09:03:34;93766.00;;;28.00
41593;BMP180;28026;48.562;14.440;2023-07-31T09:06:07;93765.00;;;28.00
41593;BMP180;28026;48.562;14.440;2023-07-31T09:08:42;93771.00;;;28.00
41593;BMP180;28026;48.562;14.440;2023-07-31T09:11:13;93772.00;;;28.00
41593;BMP180;28026;48.562;14.440;2023-07-31T09:13:46;93787.00;;;28.10
41593;BMP180;28026;48.562;14.440;2023-07-31T09:16:18;93780.00;;;28.00
41593;BMP180;28026;48.562;14.440;2023-07-31T09:18:56;93779.00;;;27.90
41593;BMP180;28026;48.562;14.440;2023-07-31T09:21:28;93773.00;;;27.80
41593;BMP180;28026;48.562;14.440;2023-07-31T09:23:59;93768.00;;;27.80
41593;BMP180;28026;48.562;14.440;2023-07-31T09:26:35;93768.00;;;27.70
41593;BMP180;28026;48.562;14.440;2023-07-31T09:29:19;93761.00;;;27.80
41593;BMP180;28026;48.562;14.440;2023-07-31T09:31:50;93765.00;;;28.10
41593;BMP180;28026;48.562;14.440;2023-07-31T09:34:37;93768.00;;;28.30
41593;BMP180;28026;48.562;14.440;2023-07-31T09:37:11;93772.00;;;28.40
41593;BMP180;28026;48.562;14.440;2023-07-31T09:39:48;93762.00;;;28.50
41593;BMP180;28026;48.562;14.440;2023-07-31T09:42:26;93774.00;;;28.40
41593;BMP180;28026;48.562;14.440;2023-07-31T09:45:09;93765.00;;;28.30
41593;BMP180;28026;48.562;14.440;2023-07-31T09:47:47;93773.00;;;28.30
41593;BMP180;28026;48.562;14.440;2023-07-31T09:50:24;93763.00;;;28.30
41593;BMP180;28026;48.562;14.440;2023-07-31T09:52:55;93754.00;;;28.20
41593;BMP180;28026;48.562;14.440;2023-07-31T09:55:27;93756.00;;;28.30
41593;BMP180;28026;48.562;14.440;2023-07-31T09:58:04;93760.00;;;28.50
41593;BMP180;28026;48.562;14.440;2023-07-31T10:00:38;93758.00;;;28.50
41593;BMP180;28026;48.562;14.440;2023-07-31T10:03:10;93758.00;;;28.60
41593;BMP180;28026;48.562;14.440;2023-07-31T10:05:50;93759.00;;;28.70
41593;BMP180;28026;48.562;14.440;2023-07-31T10:08:28;93757.00;;;28.50
41593;BMP180;28026;48.562;14.440;2023-07-31T10:11:04;93749.00;;;28.50
41593;BMP180;28026;48.562;14.440;2023-07-31T10:13:37;93750.00;;;28.70
41593;BMP180;28026;48.562;14.440;2023-07-31T10:16:10;93735.00;;;28.90
41593;BMP180;28026;48.562;14.440;2023-07-31T10:18:43;93743.00;;;29.10
41593;BMP180;28026;48.562;14.440;2023-07-31T10:21:15;93732.00;;;29.10
41593;BMP180;28026;48.562;14.440;2023-07-31T10:23:48;93743.00;;;28.90
41593;BMP180;28026;48.562;14.440;2023-07-31T10:26:22;93732.00;;;29.10
41593;BMP180;28026;48.562;14.440;2023-07-31T10:28:54;93731.00;;;29.20
41593;BMP180;28026;48.562;14.440;2023-07-31T10:31:28;93722.00;;;29.10
41593;BMP180;28026;48.562;14.440;2023-07-31T10:34:00;93716.00;;;29.20
41593;BMP180;28026;48.562;14.440;2023-07-31T10:36:33;93717.00;;;29.30
41593;BMP180;28026;48.562;14.440;2023-07-31T10:39:34;93711.00;;;29.30
41593;BMP180;28026;48.562;14.440;2023-07-31T10:42:12;93718.00;;;29.20
41593;BMP180;28026;48.562;14.440;2023-07-31T10:44:46;93701.00;;;29.10
41593;BMP180;28026;48.562;14.440;2023-07-31T10:47:17;93698.00;;;29.20
41593;BMP180;28026;48.562;14.440;2023-07-31T10:49:49;93698.00;;;29.10
41593;BMP180;28026;48.562;14.440;2023-07-31T10:52:21;93693.00;;;29.20
41593;BMP180;28026;48.562;14.440;2023-07-31T10:55:32;93688.00;;;29.30
41593;BMP180;28026;48.562;14.440;2023-07-31T10:58:18;93680.00;;;29.40
41593;BMP180;28026;48.562;14.440;2023-07-31T11:00:56;93684.00;;;29.90
41593;BMP180;28026;48.562;14.440;2023-07-31T11:03:44;93684.00;;;30.20
41593;BMP180;28026;48.562;14.440;2023-07-31T11:06:22;93674.00;;;30.50
41593;BMP180;28026;48.562;14.440;2023-07-31T11:08:53;93670.00;;;30.70
41593;BMP180;28026;48.562;14.440;2023-07-31T11:11:24;93672.00;;;30.50
41593;BMP180;28026;48.562;14.440;2023-07-31T11:13:55;93684.00;;;30.40
41593;BMP180;28026;48.562;14.440;2023-07-31T11:16:26;93681.00;;;30.10
41593;BMP180;28026;48.562;14.440;2023-07-31T11:18:57;93675.00;;;30.20
41593;BMP180;28026;48.562;14.440;2023-07-31T11:21:28;93666.00;;;30.20
41593;BMP180;28026;48.562;14.440;2023-07-31T11:23:59;93671.00;;;30.00
41593;BMP180;28026;48.562;14.440;2023-07-31T11:26:30;93670.00;;;29.80
41593;BMP180;28026;48.562;14.440;2023-07-31T11:29:01;93672.00;;;29.80
41593;BMP180;28026;48.562;14.440;2023-07-31T11:31:32;93664.00;;;29.60
41593;BMP180;28026;48.562;14.440;2023-07-31T11:34:09;93659.00;;;29.40
41593;BMP180;28026;48.562;14.440;2023-07-31T11:36:40;93657.00;;;29.30
41593;BMP180;28026;48.562;14.440;2023-07-31T11:39:11;93659.00;;;29.30
41593;BMP180;28026;48.562;14.440;2023-07-31T11:41:42;93671.00;;;29.20
41593;BMP180;28026;48.562;14.440;2023-07-31T11:44:13;93660.00;;;29.10
41593;BMP180;28026;48.562;14.440;2023-07-31T11:46:44;93668.00;;;28.90
41593;BMP180;28026;48.562;14.440;2023-07-31T11:49:15;93648.00;;;28.90
41593;BMP180;28026;48.562;14.440;2023-07-31T11:51:46;93654.00;;;28.80
41593;BMP180;28026;48.562;14.440;2023-07-31T11:54:18;93652.00;;;28.70
41593;BMP180;28026;48.562;14.440;2023-07-31T11:56:49;93659.00;;;28.50
41593;BMP180;28026;48.562;14.440;2023-07-31T11:59:21;93655.00;;;28.30
41593;BMP180;28026;48.562;14.440;2023-07-31T12:01:52;93645.00;;;28.10
41593;BMP180;28026;48.562;14.440;2023-07-31T12:04:24;93653.00;;;28.00
41593;BMP180;28026;48.562;14.440;2023-07-31T12:06:56;93652.00;;;28.00
41593;BMP180;28026;48.562;14.440;2023-07-31T12:09:27;93651.00;;;28.10
41593;BMP180;28026;48.562;14.440;2023-07-31T12:11:58;93641.00;;;28.10
41593;BMP180;28026;48.562;14.440;2023-07-31T12:14:30;93634.00;;;28.10
41593;BMP180;28026;48.562;14.440;2023-07-31T12:17:04;93625.00;;;28.20
41593;BMP180;28026;48.562;14.440;2023-07-31T12:19:37;93641.00;;;28.20
41593;BMP180;28026;48.562;14.440;2023-07-31T12:22:16;93635.00;;;28.30
41593;BMP180;28026;48.562;14.440;2023-07-31T12:24:47;93628.00;;;28.20
41593;BMP180;28026;48.562;14.440;2023-07-31T12:27:18;93629.00;;;28.20
41593;BMP180;28026;48.562;14.440;2023-07-31T12:29:49;93625.00;;;28.00
41593;BMP180;28026;48.562;14.440;2023-07-31T12:32:24;93617.00;;;28.00
41593;BMP180;28026;48.562;14.440;2023-07-31T12:35:00;93617.00;;;28.20
41593;BMP180;28026;48.562;14.440;2023-07-31T12:37:33;93623.00;;;28.40
41593;BMP180;28026;48.562;14.440;2023-07-31T12:40:04;93614.00;;;28.40
41593;BMP180;28026;48.562;14.440;2023-07-31T12:42:35;93618.00;;;28.40
41593;BMP180;28026;48.562;14.440;2023-07-31T12:45:07;93602.00;;;28.30
41593;BMP180;28026;48.562;14.440;2023-07-31T12:47:38;93587.00;;;28.50
41593;BMP180;28026;48.562;14.440;2023-07-31T12:50:09;93587.00;;;28.80
41593;BMP180;28026;48.562;14.440;2023-07-31T12:52:40;93582.00;;;29.00
41593;BMP180;28026;48.562;14.440;2023-07-31T12:55:11;93583.00;;;29.30
41593;BMP180;28026;48.562;14.440;2023-07-31T12:57:42;93582.00;;;29.50
41593;BMP180;28026;48.562;14.440;2023-07-31T13:00:13;93581.00;;;29.80
41593;BMP180;28026;48.562;14.440;2023-07-31T13:02:44;93566.00;;;29.80
41593;BMP180;28026;48.562;14.440;2023-07-31T13:05:15;93573.00;;;29.90
41593;BMP180;28026;48.562;14.440;2023-07-31T13:07:47;93566.00;;;30.00
41593;BMP180;28026;48.562;14.440;2023-07-31T13:10:19;93565.00;;;30.10
41593;BMP180;28026;48.562;14.440;2023-07-31T13:12:50;93563.00;;;30.10
41593;BMP180;28026;48.562;14.440;2023-07-31T13:15:21;93582.00;;;29.80
41593;BMP180;28026;48.562;14.440;2023-07-31T13:17:52;93563.00;;;29.50
41593;BMP180;28026;48.562;14.440;2023-07-31T13:20:23;93554.00;;;29.30
41593;BMP180;28026;48.562;14.440;2023-07-31T13:22:54;93553.00;;;29.40
41593;BMP180;28026;48.562;14.440;2023-07-31T13:25:25;93549.00;;;29.80
41593;BMP180;28026;48.562;14.440;2023-07-31T13:27:56;93545.00;;;30.20
41593;BMP180;28026;48.562;14.440;2023-07-31T13:30:27;93548.00;;;30.50
41593;BMP180;28026;48.562;14.440;2023-07-31T13:32:58;93548.00;;;30.70
41593;BMP180;28026;48.562;14.440;2023-07-31T13:35:29;93544.00;;;30.80
41593;BMP180;28026;48.562;14.440;2023-07-31T13:38:01;93532.00;;;30.60
41593;BMP180;28026;48.562;14.440;2023-07-31T13:40:32;93539.00;;;30.60
41593;BMP180;28026;48.562;14.440;2023-07-31T13:43:03;93543.00;;;30.50
41593;BMP180;28026;48.562;14.440;2023-07-31T13:45:34;93544.00;;;30.50
41593;BMP180;28026;48.562;14.440;2023-07-31T13:48:05;93530.00;;;30.60
41593;BMP180;28026;48.562;14.440;2023-07-31T13:50:36;93527.00;;;30.90
41593;BMP180;28026;48.562;14.440;2023-07-31T13:53:07;93520.00;;;30.80
41593;BMP180;28026;48.562;14.440;2023-07-31T13:55:38;93523.00;;;30.80
41593;BMP180;28026;48.562;14.440;2023-07-31T13:58:09;93524.00;;;30.70
41593;BMP180;28026;48.562;14.440;2023-07-31T14:00:40;93530.00;;;30.60
41593;BMP180;28026;48.562;14.440;2023-07-31T14:03:10;93519.00;;;30.60
41593;BMP180;28026;48.562;14.440;2023-07-31T14:05:41;93519.00;;;30.70
41593;BMP180;28026;48.562;14.440;2023-07-31T14:08:12;93518.00;;;30.60
41593;BMP180;28026;48.562;14.440;2023-07-31T14:10:43;93516.00;;;30.60
41593;BMP180;28026;48.562;14.440;2023-07-31T14:13:14;93518.00;;;30.60
41593;BMP180;28026;48.562;14.440;2023-07-31T14:15:45;93510.00;;;30.60
41593;BMP180;28026;48.562;14.440;2023-07-31T14:18:16;93516.00;;;30.40
41593;BMP180;28026;48.562;14.440;2023-07-31T14:20:48;93512.00;;;30.20
41593;BMP180;28026;48.562;14.440;2023-07-31T14:23:19;93501.00;;;30.10
41593;BMP180;28026;48.562;14.440;2023-07-31T14:25:50;93493.00;;;30.10
41593;BMP180;28026;48.562;14.440;2023-07-31T14:28:21;93504.00;;;30.20
41593;BMP180;28026;48.562;14.440;2023-07-31T14:30:52;93504.00;;;30.40